Time;durP1;ratioP1;P1;durP2;ratioP2;P2;SDS_P1;SDS_P2;PMS_P1;PMS_P2;Temp;Humidity;BMP_temperature;BMP_pressure;BME280_temperature;BME280_humidity;BME280_pressure;Samples;Min_cycle;Max_cycle;Signal;HPM_P1;HPM_P2
2023/05/07 00:01:46;;;;;;;32.40;24.98;;;;;;;-148.88;100.00;-17125.47;4998351;28;20456;-75
2023/05/07 00:04:11;;;;;;;30.38;24.40;;;;;;;-148.88;100.00;-17125.47;4998213;28;20476;-75
2023/05/07 00:06:36;;;;;;;32.67;24.25;;;;;;;-148.88;100.00;-17125.47;5015779;28;20393;-74
2023/05/07 00:09:03;;;;;;;30.70;24.70;;;;;;;-148.88;100.00;-17125.47;5015683;28;20021;-74
2023/05/07 00:11:28;;;;;;;32.17;24.42;;;;;;;-148.88;100.00;-17125.47;5015969;28;20354;-74
2023/05/07 00:13:54;;;;;;;32.42;24.25;;;;;;;-148.88;100.00;-17125.47;4998340;28;20497;-74
2023/05/07 00:16:19;;;;;;;27.95;24.58;;;;;;;-148.88;100.00;-17125.47;5015533;28;20501;-74
2023/05/07 00:18:44;;;;;;;33.15;24.55;;;;;;;-148.88;100.00;-17125.47;5015500;28;20370;-75
2023/05/07 00:21:10;;;;;;;30.77;24.90;;;;;;;-148.88;100.00;-17125.47;5015494;28;20032;-75
2023/05/07 00:23:36;;;;;;;32.05;25.08;;;;;;;-148.88;100.00;-17125.47;4997876;28;20089;-75
2023/05/07 00:26:01;;;;;;;30.42;24.40;;;;;;;-148.88;100.00;-17125.47;5015343;28;20499;-74
2023/05/07 00:28:26;;;;;;;34.00;24.80;;;;;;;-148.88;100.00;-17125.47;4997783;28;20105;-75
2023/05/07 00:30:52;;;;;;;30.15;24.90;;;;;;;-148.88;100.00;-17125.47;5015344;28;20017;-75
2023/05/07 00:33:17;;;;;;;32.95;24.67;;;;;;;-148.88;100.00;-17125.47;4997917;28;20053;-75
2023/05/07 00:35:43;;;;;;;32.75;25.63;;;;;;;-148.88;100.00;-17125.47;5015158;28;20448;-74
2023/05/07 00:38:08;;;;;;;29.05;24.75;;;;;;;-148.88;100.00;-17125.47;5015363;28;20025;-75
2023/05/07 00:40:33;;;;;;;31.15;24.65;;;;;;;-148.88;100.00;-17125.47;4997554;28;20036;-75
2023/05/07 00:42:59;;;;;;;32.53;24.95;;;;;;;-148.88;100.00;-17125.47;5015118;28;20053;-74
2023/05/07 00:45:28;;;;;;;35.25;26.08;;;;;;;-148.88;100.00;-17125.47;5014873;28;20455;-74
2023/05/07 00:47:59;;;;;;;31.27;25.30;;;;;;;-148.88;100.00;-17125.47;5014971;28;20093;-75
2023/05/07 00:50:26;;;;;;;32.38;25.98;;;;;;;-148.88;100.00;-17125.47;5015044;28;20442;-74
2023/05/07 00:52:51;;;;;;;33.08;25.55;;;;;;;-148.88;100.00;-17125.47;5014226;28;20022;-74
2023/05/07 00:55:17;;;;;;;33.83;26.33;;;;;;;-148.88;100.00;-17125.47;4997323;28;20025;-75
2023/05/07 00:57:44;;;;;;;33.80;26.17;;;;;;;-148.88;100.00;-17125.47;5014971;28;20026;-75
2023/05/07 01:00:11;;;;;;;34.85;26.23;;;;;;;-148.88;100.00;-17125.47;5014795;28;20032;-75
2023/05/07 01:02:38;;;;;;;34.67;25.92;;;;;;;-148.88;100.00;-17125.47;5014726;28;20022;-75
2023/05/07 01:05:05;;;;;;;34.17;26.42;;;;;;;-148.88;100.00;-17125.47;4997013;28;20084;-74
2023/05/07 01:07:32;;;;;;;32.90;26.40;;;;;;;-148.88;100.00;-17125.47;5014647;28;20032;-74
2023/05/07 01:09:58;;;;;;;32.50;26.08;;;;;;;-148.88;100.00;-17125.47;5014540;28;20106;-75
2023/05/07 01:12:25;;;;;;;32.35;25.95;;;;;;;-148.88;100.00;-17125.47;4996914;28;20494;-74
2023/05/07 01:14:50;;;;;;;34.38;26.48;;;;;;;-148.88;100.00;-17125.47;5014506;28;20047;-74
2023/05/07 01:17:16;;;;;;;33.20;26.98;;;;;;;-148.88;100.00;-17125.47;4996829;28;20030;-74
2023/05/07 01:19:42;;;;;;;31.65;25.83;;;;;;;-148.88;100.00;-17125.47;5014465;28;20022;-74
2023/05/07 01:22:09;;;;;;;31.80;26.75;;;;;;;-148.88;100.00;-17125.47;4996780;28;20022;-74
2023/05/07 01:24:36;;;;;;;33.25;26.20;;;;;;;-148.88;100.00;-17125.47;4996654;28;20017;-74
2023/05/07 01:27:01;;;;;;;33.72;26.08;;;;;;;-148.88;100.00;-17125.47;4996762;28;20018;-74
2023/05/07 01:29:28;;;;;;;33.80;26.00;;;;;;;-148.88;100.00;-17125.47;5014287;28;20370;-74
2023/05/07 01:31:55;;;;;;;32.25;25.75;;;;;;;-148.88;100.00;-17125.47;5014189;28;20045;-74
2023/05/07 01:34:22;;;;;;;32.15;25.15;;;;;;;-148.88;100.00;-17125.47;5014133;28;20048;-75
2023/05/07 01:36:48;;;;;;;34.70;25.95;;;;;;;-148.88;100.00;-17125.47;4996411;28;20026;-74
2023/05/07 01:39:13;;;;;;;34.13;25.92;;;;;;;-148.88;100.00;-17125.47;5014078;28;20030;-74
2023/05/07 01:41:39;;;;;;;31.95;25.75;;;;;;;-148.88;100.00;-17125.47;5014090;28;20075;-74
2023/05/07 01:44:05;;;;;;;31.80;25.55;;;;;;;-148.88;100.00;-17125.47;5014024;28;20519;-74
2023/05/07 01:46:32;;;;;;;33.28;25.88;;;;;;;-148.88;100.00;-17125.47;5013906;28;20448;-74
2023/05/07 01:48:57;;;;;;;31.83;25.05;;;;;;;-148.88;100.00;-17125.47;5013937;28;20024;-75
2023/05/07 01:51:22;;;;;;;33.75;25.27;;;;;;;-148.88;100.00;-17125.47;4996320;28;20474;-75
2023/05/07 01:53:50;;;;;;;32.58;25.90;;;;;;;-148.88;100.00;-17125.47;5013956;28;20068;-74
2023/05/07 01:56:17;;;;;;;32.92;25.83;;;;;;;-148.88;100.00;-17125.47;4996210;28;20033;-75
2023/05/07 01:58:42;;;;;;;32.85;25.48;;;;;;;-148.88;100.00;-17125.47;5013772;28;20029;-74
2023/05/07 02:01:07;;;;;;;31.85;25.50;;;;;;;-148.88;100.00;-17125.47;4996210;28;20018;-75
2023/05/07 02:03:32;;;;;;;33.20;25.23;;;;;;;-148.88;100.00;-17125.47;5013646;28;20036;-74
2023/05/07 02:05:58;;;;;;;31.85;25.48;;;;;;;-148.88;100.00;-17125.47;4996316;28;20079;-74
2023/05/07 02:08:23;;;;;;;33.97;24.83;;;;;;;-148.88;100.00;-17125.47;5014023;28;20026;-75
2023/05/07 02:10:49;;;;;;;33.63;25.80;;;;;;;-148.88;100.00;-17125.47;5013610;28;20477;-74
2023/05/07 02:13:15;;;;;;;35.13;25.98;;;;;;;-148.88;100.00;-17125.47;5013541;28;20026;-75
2023/05/07 02:15:40;;;;;;;33.90;25.42;;;;;;;-148.88;100.00;-17125.47;5013443;28;20370;-75
2023/05/07 02:18:07;;;;;;;32.75;24.92;;;;;;;-148.88;100.00;-17125.47;5013399;28;20026;-74
2023/05/07 02:20:32;;;;;;;31.65;25.05;;;;;;;-148.88;100.00;-17125.47;4995922;28;20507;-74
2023/05/07 02:22:58;;;;;;;33.85;26.90;;;;;;;-148.88;100.00;-17125.47;5013361;28;20030;-75
2023/05/07 02:25:23;;;;;;;34.40;26.38;;;;;;;-148.88;100.00;-17125.47;5013320;28;20436;-75
2023/05/07 02:27:48;;;;;;;36.42;26.42;;;;;;;-148.88;100.00;-17125.47;5013308;28;20049;-74
2023/05/07 02:30:14;;;;;;;35.58;27.15;;;;;;;-148.88;100.00;-17125.47;5013295;28;20022;-74
2023/05/07 02:32:39;;;;;;;35.20;26.73;;;;;;;-148.88;100.00;-17125.47;5013306;28;20026;-74
2023/05/07 02:35:05;;;;;;;34.47;27.17;;;;;;;-148.88;100.00;-17125.47;5013212;28;20024;-74
2023/05/07 02:37:30;;;;;;;32.65;25.83;;;;;;;-148.88;100.00;-17125.47;5013271;28;20033;-74
2023/05/07 02:39:56;;;;;;;31.88;25.42;;;;;;;-148.88;100.00;-17125.47;5013199;28;20033;-75
2023/05/07 02:42:21;;;;;;;32.50;26.08;;;;;;;-148.88;100.00;-17125.47;4995631;28;20133;-74
2023/05/07 02:44:46;;;;;;;34.30;27.38;;;;;;;-148.88;100.00;-17125.47;5013187;28;20113;-74
2023/05/07 02:47:14;;;;;;;34.28;26.45;;;;;;;-148.88;100.00;-17125.47;5013276;28;20105;-75
2023/05/07 02:49:39;;;;;;;35.40;27.58;;;;;;;-148.88;100.00;-17125.47;5013489;28;20021;-75
2023/05/07 02:52:06;;;;;;;36.38;27.67;;;;;;;-148.88;100.00;-17125.47;5013347;28;20046;-74
2023/05/07 02:54:31;;;;;;;35.83;26.85;;;;;;;-148.88;100.00;-17125.47;4995363;28;20029;-75
2023/05/07 02:56:57;;;;;;;34.03;25.73;;;;;;;-148.88;100.00;-17125.47;5012770;28;20472;-74
2023/05/07 02:59:23;;;;;;;34.97;26.92;;;;;;;-148.88;100.00;-17125.47;5012751;28;20030;-74
2023/05/07 03:01:48;;;;;;;36.28;27.17;;;;;;;-148.88;100.00;-17125.47;5012666;28;20021;-74
2023/05/07 03:04:13;;;;;;;32.88;27.08;;;;;;;-148.88;100.00;-17125.47;5012566;28;20110;-74
2023/05/07 03:06:39;;;;;;;35.75;27.35;;;;;;;-148.88;100.00;-17125.47;4995054;28;20029;-74
2023/05/07 03:09:04;;;;;;;36.45;27.88;;;;;;;-148.88;100.00;-17125.47;5012624;28;20025;-74
2023/05/07 03:11:29;;;;;;;37.50;28.63;;;;;;;-148.88;100.00;-17125.47;4995180;28;20136;-74
2023/05/07 03:13:55;;;;;;;39.63;27.83;;;;;;;-148.88;100.00;-17125.47;4995015;28;20045;-74
2023/05/07 03:16:20;;;;;;;36.72;28.58;;;;;;;-148.88;100.00;-17125.47;5013685;28;20080;-74
2023/05/07 03:18:45;;;;;;;36.72;28.73;;;;;;;-148.88;100.00;-17125.47;5016302;28;20391;-74
2023/05/07 03:21:11;;;;;;;35.80;28.05;;;;;;;-148.88;100.00;-17125.47;5016607;28;20030;-74
2023/05/07 03:23:36;;;;;;;40.13;29.67;;;;;;;-148.88;100.00;-17125.47;5016391;28;20092;-75
2023/05/07 03:26:01;;;;;;;39.53;29.17;;;;;;;-148.88;100.00;-17125.47;5016300;28;20405;-75
2023/05/07 03:28:27;;;;;;;38.10;28.95;;;;;;;-148.88;100.00;-17125.47;5016290;28;20018;-75
2023/05/07 03:30:52;;;;;;;40.35;29.92;;;;;;;-148.88;100.00;-17125.47;5016156;28;20025;-75
2023/05/07 03:33:17;;;;;;;40.08;30.50;;;;;;;-148.88;100.00;-17125.47;5016132;28;20032;-75
2023/05/07 03:35:43;;;;;;;37.78;29.05;;;;;;;-148.88;100.00;-17125.47;5016179;28;20029;-74
2023/05/07 03:38:08;;;;;;;41.25;31.10;;;;;;;-148.88;100.00;-17125.47;5015968;28;20469;-74
2023/05/07 03:40:33;;;;;;;42.47;31.83;;;;;;;-148.88;100.00;-17125.47;4998469;28;20030;-74
2023/05/07 03:42:59;;;;;;;39.83;30.88;;;;;;;-148.88;100.00;-17125.47;5016004;28;20022;-74
2023/05/07 03:45:25;;;;;;;39.28;30.77;;;;;;;-148.88;100.00;-17125.47;4998173;28;20033;-75
2023/05/07 03:47:51;;;;;;;40.85;31.25;;;;;;;-148.88;100.00;-17125.47;5015856;28;20025;-74
2023/05/07 03:50:16;;;;;;;42.30;31.27;;;;;;;-148.88;100.00;-17125.47;5015867;28;20060;-74
2023/05/07 03:52:41;;;;;;;40.67;30.45;;;;;;;-148.88;100.00;-17125.47;5016056;28;20058;-74
2023/05/07 03:55:07;;;;;;;41.90;31.27;;;;;;;-148.88;100.00;-17125.47;5015728;28;20113;-74
2023/05/07 03:57:32;;;;;;;44.05;31.58;;;;;;;-148.88;100.00;-17125.47;5015686;28;20037;-74
2023/05/07 03:59:58;;;;;;;40.95;30.83;;;;;;;-148.88;100.00;-17125.47;5016023;28;20022;-74
2023/05/07 04:02:23;;;;;;;44.88;32.35;;;;;;;-148.88;100.00;-17125.47;4998082;28;20033;-75
2023/05/07 04:04:49;;;;;;;45.20;33.35;;;;;;;-148.88;100.00;-17125.47;4998016;28;20503;-75
2023/05/07 04:07:14;;;;;;;40.65;18.08;;;;;;;-148.88;100.00;-17125.47;5015717;28;20025;-75
2023/05/07 04:09:40;;;;;;;44.70;32.35;;;;;;;-148.88;100.00;-17125.47;4998036;28;20022;-74
2023/05/07 04:12:05;;;;;;;45.63;33.78;;;;;;;-148.88;100.00;-17125.47;5015457;28;20083;-74
2023/05/07 04:14:32;;;;;;;46.15;33.03;;;;;;;-148.88;100.00;-17125.47;5015834;28;20102;-74
2023/05/07 04:16:58;;;;;;;36.70;18.08;;;;;;;-148.88;100.00;-17125.47;5015490;28;20057;-74
2023/05/07 04:19:23;;;;;;;48.13;33.53;;;;;;;-148.88;100.00;-17125.47;5015368;28;20374;-74
2023/05/07 04:21:48;;;;;;;46.95;32.80;;;;;;;-148.88;100.00;-17125.47;5015241;28;20045;-74
2023/05/07 04:24:13;;;;;;;46.55;33.50;;;;;;;-148.88;100.00;-17125.47;4997579;28;20030;-75
2023/05/07 04:26:40;;;;;;;45.00;32.35;;;;;;;-148.88;100.00;-17125.47;5015067;28;20499;-74
2023/05/07 04:29:05;;;;;;;47.05;33.97;;;;;;;-148.88;100.00;-17125.47;4997639;28;20026;-74
2023/05/07 04:31:31;;;;;;;46.80;32.92;;;;;;;-148.88;100.00;-17125.47;5015150;28;20033;-74
2023/05/07 04:33:56;;;;;;;50.95;32.78;;;;;;;-148.88;100.00;-17125.47;5015127;28;20492;-74
2023/05/07 04:36:22;;;;;;;46.42;33.70;;;;;;;-148.88;100.00;-17125.47;5014855;28;20030;-74
2023/05/07 04:38:47;;;;;;;47.97;32.50;;;;;;;-148.88;100.00;-17125.47;5014899;28;20080;-75
2023/05/07 04:41:13;;;;;;;39.53;18.83;;;;;;;-148.88;100.00;-17125.47;5014879;28;20117;-75
2023/05/07 04:43:38;;;;;;;46.28;34.00;;;;;;;-148.88;100.00;-17125.47;5014843;28;20473;-74
2023/05/07 04:46:03;;;;;;;47.40;34.60;;;;;;;-148.88;100.00;-17125.47;5014660;28;20084;-74
2023/05/07 04:48:29;;;;;;;49.78;33.25;;;;;;;-148.88;100.00;-17125.47;5014737;28;20025;-74
2023/05/07 04:50:54;;;;;;;42.55;19.73;;;;;;;-148.88;100.00;-17125.47;4997274;28;20021;-74
2023/05/07 04:53:20;;;;;;;49.40;32.88;;;;;;;-148.88;100.00;-17125.47;4997025;28;20484;-74
2023/05/07 04:55:45;;;;;;;44.50;32.80;;;;;;;-148.88;100.00;-17125.47;5014538;28;20506;-74
2023/05/07 04:58:11;;;;;;;47.83;32.55;;;;;;;-148.88;100.00;-17125.47;5014419;28;20543;-74
2023/05/07 05:00:38;;;;;;;45.75;33.10;;;;;;;-148.88;100.00;-17125.47;4996818;28;20021;-74
2023/05/07 05:03:03;;;;;;;48.15;32.92;;;;;;;-148.88;100.00;-17125.47;5014420;28;20026;-75
2023/05/07 05:05:28;;;;;;;48.65;32.72;;;;;;;-148.88;100.00;-17125.47;5014455;28;20032;-75
2023/05/07 05:07:54;;;;;;;44.13;31.63;;;;;;;-148.88;100.00;-17125.47;5014741;28;20096;-74
2023/05/07 05:10:19;;;;;;;47.13;33.63;;;;;;;-148.88;100.00;-17125.47;5014506;28;20017;-75
2023/05/07 05:12:44;;;;;;;47.13;33.38;;;;;;;-148.88;100.00;-17125.47;5014323;28;20021;-74
2023/05/07 05:15:12;;;;;;;49.40;34.28;;;;;;;-148.88;100.00;-17125.47;5014235;28;20093;-75
2023/05/07 05:17:37;;;;;;;45.90;33.28;;;;;;;-148.88;100.00;-17125.47;4996564;28;20520;-75
2023/05/07 05:20:03;;;;;;;49.05;32.33;;;;;;;-148.88;100.00;-17125.47;5014303;28;20067;-75
2023/05/07 05:22:30;;;;;;;45.95;31.92;;;;;;;-148.88;100.00;-17125.47;5014059;28;20092;-75
2023/05/07 05:24:58;;;;;;;46.10;32.15;;;;;;;-148.88;100.00;-17125.47;4996370;28;20026;-74
2023/05/07 05:27:24;;;;;;;46.30;31.67;;;;;;;-148.88;100.00;-17125.47;5014250;28;20056;-75
2023/05/07 05:29:49;;;;;;;46.10;32.05;;;;;;;-148.88;100.00;-17125.47;5013976;28;20022;-75
2023/05/07 05:32:15;;;;;;;47.40;32.75;;;;;;;-148.88;100.00;-17125.47;5013839;28;20025;-75
2023/05/07 05:34:40;;;;;;;45.67;31.67;;;;;;;-148.88;100.00;-17125.47;5014004;28;20025;-75
2023/05/07 05:37:05;;;;;;;45.15;30.95;;;;;;;-148.88;100.00;-17125.47;5013668;28;20029;-75
2023/05/07 05:39:31;;;;;;;46.22;30.60;;;;;;;-148.88;100.00;-17125.47;4995618;28;20022;-75
2023/05/07 05:41:56;;;;;;;46.92;31.42;;;;;;;-148.88;100.00;-17125.47;5013793;28;20112;-75
2023/05/07 05:44:21;;;;;;;45.63;31.25;;;;;;;-148.88;100.00;-17125.47;4995968;28;20026;-75
2023/05/07 05:46:47;;;;;;;43.22;30.42;;;;;;;-148.88;100.00;-17125.47;4996051;28;20034;-74
2023/05/07 05:49:12;;;;;;;43.53;29.85;;;;;;;-148.88;100.00;-17125.47;5013626;28;20026;-75
2023/05/07 05:51:38;;;;;;;42.85;30.10;;;;;;;-148.88;100.00;-17125.47;5013795;28;20022;-75
2023/05/07 05:54:03;;;;;;;43.72;30.67;;;;;;;-148.88;100.00;-17125.47;5013760;28;20032;-75
2023/05/07 05:56:28;;;;;;;46.45;30.48;;;;;;;-148.88;100.00;-17125.47;5013630;28;20029;-75
2023/05/07 05:58:54;;;;;;;39.42;28.45;;;;;;;-148.88;100.00;-17125.47;5013638;28;20056;-75
2023/05/07 06:01:19;;;;;;;44.05;30.13;;;;;;;-148.88;100.00;-17125.47;4995885;28;20025;-75
2023/05/07 06:03:44;;;;;;;42.03;28.95;;;;;;;-148.88;100.00;-17125.47;4995840;28;20148;-75
2023/05/07 06:06:10;;;;;;;41.60;28.70;;;;;;;-148.88;100.00;-17125.47;5013424;28;20077;-75
2023/05/07 06:08:35;;;;;;;36.95;27.10;;;;;;;-148.88;100.00;-17125.47;4995822;28;20025;-74
2023/05/07 06:11:01;;;;;;;38.42;27.23;;;;;;;-148.88;100.00;-17125.47;4996069;28;20092;-75
2023/05/07 06:13:26;;;;;;;40.08;27.63;;;;;;;-148.88;100.00;-17125.47;5013383;28;20022;-74
2023/05/07 06:15:52;;;;;;;38.70;27.30;;;;;;;-148.88;100.00;-17125.47;4995588;28;20068;-74
2023/05/07 06:18:17;;;;;;;35.65;26.73;;;;;;;-148.88;100.00;-17125.47;5013107;28;20026;-75
2023/05/07 06:20:42;;;;;;;36.50;25.85;;;;;;;-148.88;100.00;-17125.47;5013178;28;20029;-75
2023/05/07 06:23:07;;;;;;;36.90;26.02;;;;;;;-148.88;100.00;-17125.47;5013213;28;20029;-75
2023/05/07 06:25:33;;;;;;;38.67;26.63;;;;;;;-148.88;100.00;-17125.47;5013135;28;20018;-75
2023/05/07 06:27:58;;;;;;;35.90;25.63;;;;;;;-148.88;100.00;-17125.47;5013389;28;20025;-75
2023/05/07 06:30:23;;;;;;;34.70;24.90;;;;;;;-148.88;100.00;-17125.47;5013068;28;20033;-75
2023/05/07 06:32:49;;;;;;;38.13;26.38;;;;;;;-148.88;100.00;-17125.47;5013010;28;20105;-75
2023/05/07 06:35:14;;;;;;;31.65;24.30;;;;;;;-148.88;100.00;-17125.47;5013208;28;20025;-75
2023/05/07 06:37:42;;;;;;;37.33;24.17;;;;;;;-148.88;100.00;-17125.47;4995222;28;20532;-74
2023/05/07 06:40:08;;;;;;;31.95;24.73;;;;;;;-148.88;100.00;-17125.47;5012950;28;20049;-75
2023/05/07 06:42:33;;;;;;;31.55;23.55;;;;;;;-148.88;100.00;-17125.47;5013161;28;20109;-75
2023/05/07 06:44:59;;;;;;;34.58;24.90;;;;;;;-148.88;100.00;-17125.47;4995091;28;20069;-75
2023/05/07 06:47:24;;;;;;;31.35;22.95;;;;;;;-148.88;100.00;-17125.47;5012808;28;20145;-75
2023/05/07 06:49:49;;;;;;;31.42;22.80;;;;;;;-148.88;100.00;-17125.47;4995246;28;20480;-74
2023/05/07 06:52:15;;;;;;;31.25;23.50;;;;;;;-148.88;100.00;-17125.47;5015648;28;20480;-75
2023/05/07 06:54:40;;;;;;;36.00;24.35;;;;;;;-148.88;100.00;-17125.47;4999233;28;20544;-75
2023/05/07 06:57:05;;;;;;;31.45;23.52;;;;;;;-148.88;100.00;-17125.47;5016902;28;20056;-75
2023/05/07 06:59:31;;;;;;;32.25;23.15;;;;;;;-148.88;100.00;-17125.47;5016764;28;20022;-75
2023/05/07 07:01:56;;;;;;;31.77;22.70;;;;;;;-148.88;100.00;-17125.47;5016780;28;20033;-75
2023/05/07 07:04:22;;;;;;;30.75;22.83;;;;;;;-148.88;100.00;-17125.47;5016964;28;20057;-75
2023/05/07 07:06:48;;;;;;;30.42;22.40;;;;;;;-148.88;100.00;-17125.47;5017101;28;20072;-75
2023/05/07 07:09:13;;;;;;;31.10;22.23;;;;;;;-148.88;100.00;-17125.47;5016634;28;20026;-75
2023/05/07 07:11:38;;;;;;;27.88;21.35;;;;;;;-148.88;100.00;-17125.47;5017147;28;20097;-74
2023/05/07 07:14:05;;;;;;;31.52;22.17;;;;;;;-148.88;100.00;-17125.47;4999030;28;20032;-75
2023/05/07 07:16:30;;;;;;;29.60;21.42;;;;;;;-148.88;100.00;-17125.47;5016717;28;20037;-74
2023/05/07 07:18:56;;;;;;;30.02;21.27;;;;;;;-148.88;100.00;-17125.47;5016532;28;20026;-75
2023/05/07 07:21:21;;;;;;;29.08;21.60;;;;;;;-148.88;100.00;-17125.47;5016331;28;20026;-75
2023/05/07 07:23:46;;;;;;;30.30;22.92;;;;;;;-148.88;100.00;-17125.47;5016224;28;20076;-74
2023/05/07 07:26:12;;;;;;;27.17;20.70;;;;;;;-148.88;100.00;-17125.47;4998581;28;20030;-75
2023/05/07 07:28:46;;;;;;;28.02;21.40;;;;;;;-148.88;100.00;-17125.47;5016198;28;20032;-76
2023/05/07 07:31:12;;;;;;;26.48;19.98;;;;;;;-148.88;100.00;-17125.47;5016215;28;20021;-75
2023/05/07 07:33:37;;;;;;;28.33;20.95;;;;;;;-148.88;100.00;-17125.47;5016194;28;20448;-75
2023/05/07 07:36:03;;;;;;;27.45;20.85;;;;;;;-148.88;100.00;-17125.47;5016242;28;20017;-74
2023/05/07 07:38:28;;;;;;;26.75;19.95;;;;;;;-148.88;100.00;-17125.47;5016566;28;20370;-75
2023/05/07 07:40:54;;;;;;;26.17;20.40;;;;;;;-148.88;100.00;-17125.47;5016779;28;20033;-75
2023/05/07 07:43:20;;;;;;;26.33;19.10;;;;;;;-148.88;100.00;-17125.47;5016267;28;20069;-75
2023/05/07 07:45:45;;;;;;;24.20;18.30;;;;;;;-148.88;100.00;-17125.47;5015946;28;20034;-75
2023/05/07 07:48:11;;;;;;;24.55;18.88;;;;;;;-148.88;100.00;-17125.47;5016178;28;20026;-75
2023/05/07 07:50:36;;;;;;;22.73;17.55;;;;;;;-148.88;100.00;-17125.47;5016197;28;20406;-75
2023/05/07 07:53:01;;;;;;;24.80;18.70;;;;;;;-148.88;100.00;-17125.47;5015802;28;20434;-75
2023/05/07 07:55:27;;;;;;;23.23;17.80;;;;;;;-148.88;100.00;-17125.47;5015701;28;20033;-75
2023/05/07 07:57:52;;;;;;;21.73;17.70;;;;;;;-148.88;100.00;-17125.47;5015707;28;20036;-75
2023/05/07 08:00:18;;;;;;;22.27;17.38;;;;;;;-148.88;100.00;-17125.47;4998079;28;20107;-75
2023/05/07 08:02:43;;;;;;;20.90;17.35;;;;;;;-148.88;100.00;-17125.47;5015381;28;20388;-75
2023/05/07 08:05:08;;;;;;;21.40;16.95;;;;;;;-148.88;100.00;-17125.47;5015558;28;20041;-75
2023/05/07 08:07:34;;;;;;;22.33;16.33;;;;;;;-148.88;100.00;-17125.47;5015602;28;20053;-75
2023/05/07 08:09:59;;;;;;;21.90;16.30;;;;;;;-148.88;100.00;-17125.47;4997907;28;20160;-75
2023/05/07 08:12:24;;;;;;;21.50;16.58;;;;;;;-148.88;100.00;-17125.47;5016194;28;20108;-75
2023/05/07 08:14:50;;;;;;;19.50;15.90;;;;;;;-148.88;100.00;-17125.47;5015507;28;20504;-75
2023/05/07 08:17:16;;;;;;;24.63;16.63;;;;;;;-148.88;100.00;-17125.47;5022770;28;20034;-75
2023/05/07 08:19:42;;;;;;;19.75;15.35;;;;;;;-148.88;100.00;-17125.47;5004035;28;20053;-75
2023/05/07 08:22:08;;;;;;;19.60;15.68;;;;;;;-148.88;100.00;-17125.47;4997853;28;20052;-75
2023/05/07 08:24:33;;;;;;;20.27;15.57;;;;;;;-148.88;100.00;-17125.47;5015306;28;20030;-75
2023/05/07 08:26:58;;;;;;;19.55;15.20;;;;;;;-148.88;100.00;-17125.47;5015212;28;20523;-75
2023/05/07 08:29:24;;;;;;;20.35;15.90;;;;;;;-148.88;100.00;-17125.47;5015108;28;20106;-75
2023/05/07 08:31:49;;;;;;;19.58;15.18;;;;;;;-148.88;100.00;-17125.47;5015051;28;20022;-75
2023/05/07 08:34:14;;;;;;;18.05;14.93;;;;;;;-148.88;100.00;-17125.47;5014966;28;20116;-75
2023/05/07 08:36:41;;;;;;;19.55;14.88;;;;;;;-148.88;100.00;-17125.47;4997334;28;20024;-75
2023/05/07 08:39:07;;;;;;;18.63;14.40;;;;;;;-148.88;100.00;-17125.47;4997196;28;20036;-75
2023/05/07 08:41:32;;;;;;;19.40;14.45;;;;;;;-148.88;100.00;-17125.47;5014832;28;20026;-75
2023/05/07 08:43:59;;;;;;;19.15;14.77;;;;;;;-148.88;100.00;-17125.47;4981190;28;20034;-75
2023/05/07 08:46:25;;;;;;;18.02;13.65;;;;;;;-148.88;100.00;-17125.47;5014720;28;20117;-75
2023/05/07 08:48:51;;;;;;;19.05;14.25;;;;;;;-148.88;100.00;-17125.47;4997132;28;20110;-75
2023/05/07 08:51:19;;;;;;;16.20;13.45;;;;;;;-148.88;100.00;-17125.47;5014854;28;20396;-75
2023/05/07 08:53:45;;;;;;;17.02;12.73;;;;;;;-148.88;100.00;-17125.47;5015325;28;20444;-76
2023/05/07 08:56:11;;;;;;;18.45;12.45;;;;;;;-148.88;100.00;-17125.47;5014976;28;20473;-75
2023/05/07 08:58:37;;;;;;;15.40;11.63;;;;;;;-148.88;100.00;-17125.47;5014858;28;20026;-75
2023/05/07 09:01:09;;;;;;;14.45;12.20;;;;;;;-148.88;100.00;-17125.47;5015031;28;20080;-74
2023/05/07 09:03:35;;;;;;;16.45;12.95;;;;;;;-148.88;100.00;-17125.47;5015114;28;20439;-75
2023/05/07 09:06:00;;;;;;;17.85;13.02;;;;;;;-148.88;100.00;-17125.47;4997126;28;20018;-75
2023/05/07 09:08:27;;;;;;;14.90;11.50;;;;;;;-148.88;100.00;-17125.47;4997339;28;20117;-74
2023/05/07 09:10:52;;;;;;;13.95;11.73;;;;;;;-148.88;100.00;-17125.47;5014728;28;20049;-75
2023/05/07 09:13:18;;;;;;;13.45;11.25;;;;;;;-148.88;99.99;-17125.47;4996599;28;20137;-75
2023/05/07 09:15:43;;;;;;;14.43;11.88;;;;;;;-148.88;100.00;-17125.47;4996665;28;20564;-75
2023/05/07 09:18:09;;;;;;;14.38;11.40;;;;;;;-148.88;100.00;-17125.47;5014368;28;20021;-75
2023/05/07 09:20:36;;;;;;;14.82;11.20;;;;;;;-148.88;100.00;-17125.47;5014483;28;20038;-76
2023/05/07 09:23:02;;;;;;;14.23;11.38;;;;;;;-148.88;100.00;-17125.47;5014339;28;20025;-75
2023/05/07 09:25:32;;;;;;;11.35;9.43;;;;;;;-148.88;97.25;-17125.47;4996743;28;20021;-75
2023/05/07 09:27:57;;;;;;;9.52;8.45;;;;;;;-148.88;96.04;-17125.47;5014274;28;20476;-75
2023/05/07 09:30:27;;;;;;;10.32;8.73;;;;;;;-148.88;95.38;-17125.47;5014280;28;20026;-75
2023/05/07 09:32:53;;;;;;;9.45;8.45;;;;;;;-148.88;95.17;-17125.47;4996824;28;20392;-75
2023/05/07 09:35:21;;;;;;;9.77;8.00;;;;;;;-148.88;97.34;-17125.47;5014063;28;20030;-75
2023/05/07 09:37:46;;;;;;;11.75;8.73;;;;;;;-148.88;95.43;-17125.47;4996414;28;20026;-75
2023/05/07 09:40:28;;;;;;;10.65;8.27;;;;;;;-148.88;94.48;-17125.47;5014104;28;20025;-75
2023/05/07 09:42:54;;;;;;;10.05;8.10;;;;;;;-148.88;95.81;-17125.47;5014060;28;20032;-75
2023/05/07 09:45:26;;;;;;;10.43;8.70;;;;;;;-148.88;94.53;-17125.47;5021942;22;20122;-89
2023/05/07 09:47:56;;;;;;;11.32;8.00;;;;;;;-148.88;94.33;-17125.47;5014322;28;20400;-89
2023/05/07 09:50:27;;;;;;;12.30;8.18;;;;;;;-148.88;91.12;-17125.47;4996976;28;20033;-90
2023/05/07 09:52:54;;;;;;;10.10;8.13;;;;;;;-148.88;94.31;-17125.47;4997835;28;20029;-90
2023/05/07 09:55:20;;;;;;;10.48;8.30;;;;;;;-148.88;93.68;-17125.47;5012769;28;20022;-90
2023/05/07 09:57:46;;;;;;;10.30;8.02;;;;;;;-148.88;92.39;-17125.47;4996410;28;20018;-90
2023/05/07 10:00:39;;;;;;;10.55;8.30;;;;;;;-148.88;95.50;-17125.47;5058478;22;20049;-82
2023/05/07 10:06:12;;;;;;;11.13;7.35;;;;;;;-148.88;94.22;-17125.47;4938410;29;20036;-83
2023/05/07 10:08:57;;;;;;;9.73;8.02;;;;;;;-148.88;93.79;-17125.47;4938376;29;20035;-83
2023/05/07 10:11:58;;;;;;;8.95;7.47;;;;;;;-148.88;92.68;-17125.47;4980087;28;20034;-82
2023/05/07 10:14:42;;;;;;;9.77;7.78;;;;;;;-148.88;95.17;-17125.47;4961692;28;20084;-82
2023/05/07 10:17:19;;;;;;;8.93;7.78;;;;;;;-148.88;90.19;-17125.47;4997327;28;20046;-83
2023/05/07 10:22:45;;;;;;;11.13;7.60;;;;;;;-148.88;90.04;-17125.47;4975880;28;20031;-82
2023/05/07 10:25:48;;;;;;;9.68;7.78;;;;;;;-148.88;88.66;-17125.47;4978619;28;20062;-82
2023/05/07 10:28:34;;;;;;;9.60;7.50;;;;;;;-148.88;86.11;-17125.47;4978824;28;20081;-82
2023/05/07 10:31:59;;;;;;;9.85;7.03;;;;;;;-148.88;86.91;-17125.47;4979567;28;20521;-83
2023/05/07 10:34:28;;;;;;;;;;;;;;;-148.88;87.77;-17125.47;4900066;29;20048;-83
2023/05/07 10:37:03;;;;;;;8.98;7.28;;;;;;;-148.88;83.48;-17125.47;4995364;28;19917;-82
2023/05/07 10:39:46;;;;;;;8.90;6.95;;;;;;;-148.88;86.72;-17125.47;4998296;28;20026;-83
2023/05/07 10:42:15;;;;;;;8.30;6.88;;;;;;;-148.88;84.61;-17125.47;4979718;28;20377;-83
2023/05/07 10:45:06;;;;;;;7.70;6.88;;;;;;;-148.88;83.90;-17125.47;4996895;28;20033;-83
2023/05/07 10:47:46;;;;;;;8.23;6.63;;;;;;;-148.88;84.63;-17125.47;4997702;28;20495;-83
2023/05/07 10:50:17;;;;;;;10.40;6.90;;;;;;;-148.88;81.85;-17125.47;5004234;28;20034;-83
2023/05/07 10:53:16;;;;;;;6.53;5.70;;;;;;;-148.88;82.38;-17125.47;4984381;28;20031;-84
2023/05/07 10:56:25;;;;;;;6.75;5.90;;;;;;;-148.88;80.64;-17125.47;4979464;28;20027;-83